createdAt,value
2023-11-24T00:00:34.984Z,89.28
2023-11-24T00:01:34.949Z,89.38
2023-11-24T00:02:34.875Z,89.58
2023-11-24T00:03:34.947Z,89.58
2023-11-24T00:04:34.815Z,89.69
2023-11-24T00:05:34.835Z,90.30
2023-11-24T00:06:34.859Z,90.34
2023-11-24T00:07:34.815Z,90.45
2023-11-24T00:08:34.780Z,90.75
2023-11-24T00:09:34.808Z,90.96
2023-11-24T00:10:34.766Z,90.66
2023-11-24T00:11:34.772Z,90.45
2023-11-24T00:12:34.859Z,90.45
2023-11-24T00:13:34.745Z,90.55
2023-11-24T00:14:34.746Z,90.96
2023-11-24T00:15:34.804Z,91.06
2023-11-24T00:16:34.767Z,91.06
2023-11-24T00:17:34.795Z,90.96
2023-11-24T00:18:34.732Z,91.27
2023-11-24T00:19:34.688Z,91.78
2023-11-24T00:20:34.636Z,91.93
2023-11-24T00:21:34.704Z,91.93
2023-11-24T00:22:34.617Z,91.83
2023-11-24T00:23:34.644Z,91.72
2023-11-24T00:24:35.170Z,91.83
2023-11-24T00:25:34.618Z,91.58
2023-11-24T00:26:34.574Z,91.58
2023-11-24T00:27:34.598Z,91.78
2023-11-24T00:28:34.573Z,91.68
2023-11-24T00:29:34.615Z,91.38
2023-11-24T00:30:34.596Z,91.47
2023-11-24T00:31:34.540Z,91.99
2023-11-24T00:32:34.552Z,92.14
2023-11-24T00:33:34.675Z,92.65
2023-11-24T00:34:34.601Z,92.65
2023-11-24T00:35:34.564Z,92.44
2023-11-24T00:36:34.586Z,92.55
2023-11-24T00:37:34.505Z,92.55
2023-11-24T00:38:34.483Z,91.52
2023-11-24T00:39:34.519Z,91.52
2023-11-24T00:40:34.496Z,91.78
2023-11-24T00:41:34.469Z,91.38
2023-11-24T00:42:35.534Z,91.47
2023-11-24T00:43:34.443Z,91.17
2023-11-24T00:44:34.423Z,90.34
2023-11-24T00:45:34.477Z,90.55
2023-11-24T00:46:34.413Z,90.96
2023-11-24T00:47:34.466Z,90.66
2023-11-24T00:48:34.432Z,90.34
2023-11-24T00:49:34.365Z,91.06
2023-11-24T00:50:34.771Z,91.06
2023-11-24T00:51:34.448Z,91.78
2023-11-24T00:52:34.378Z,91.68
2023-11-24T00:53:34.331Z,90.75
2023-11-24T00:54:34.490Z,91.38
2023-11-24T00:55:35.295Z,91.99
2023-11-24T00:56:34.290Z,92.10
2023-11-24T00:57:35.236Z,91.78
2023-11-24T00:58:34.270Z,91.47
2023-11-24T00:59:34.418Z,91.17
2023-11-24T01:00:34.371Z,90.75
2023-11-24T01:01:34.349Z,90.86
2023-11-24T01:02:35.232Z,90.96
2023-11-24T01:03:34.338Z,91.27
2023-11-24T01:04:34.249Z,91.47
2023-11-24T01:05:35.184Z,91.83
2023-11-24T01:06:34.272Z,92.03
2023-11-24T01:07:34.190Z,92.03
2023-11-24T01:08:34.193Z,91.42
2023-11-24T01:09:35.281Z,91.31
2023-11-24T01:10:34.148Z,91.11
2023-11-24T01:11:34.171Z,90.80
2023-11-24T01:12:34.165Z,91.11
2023-11-24T01:13:35.074Z,91.11
2023-11-24T01:14:34.123Z,91.31
2023-11-24T01:15:34.126Z,91.62
2023-11-24T01:16:34.093Z,91.83
2023-11-24T01:17:34.177Z,90.90
2023-11-24T01:18:34.131Z,90.28
2023-11-24T01:19:35.023Z,89.97
2023-11-24T01:20:34.033Z,89.97
2023-11-24T01:21:34.045Z,89.87
2023-11-24T01:22:34.010Z,90.18
2023-11-24T01:23:33.984Z,90.39
2023-11-24T01:24:34.959Z,90.39
2023-11-24T01:25:33.970Z,90.39
2023-11-24T01:26:33.965Z,90.01
2023-11-24T01:27:33.994Z,89.87
2023-11-24T01:28:33.925Z,89.91
2023-11-24T01:29:33.906Z,89.05
2023-11-24T01:30:34.941Z,88.64
2023-11-24T01:31:33.924Z,88.43
2023-11-24T01:32:33.889Z,89.05
2023-11-24T01:33:33.968Z,89.50
2023-11-24T01:34:33.951Z,89.19
2023-11-24T01:35:33.868Z,89.29
2023-11-24T01:36:34.885Z,89.61
2023-11-24T01:37:33.891Z,89.50
2023-11-24T01:38:33.799Z,89.29
2023-11-24T01:39:33.824Z,89.29
2023-11-24T01:40:33.778Z,89.50
2023-11-24T01:41:33.790Z,89.50
2023-11-24T01:42:33.813Z,89.91
2023-11-24T01:43:33.752Z,89.91
2023-11-24T01:44:33.729Z,89.81
2023-11-24T01:45:33.795Z,89.95
2023-11-24T01:46:33.762Z,89.85
2023-11-24T01:47:33.743Z,89.95
2023-11-24T01:48:33.787Z,89.65
2023-11-24T01:49:33.683Z,89.71
2023-11-24T01:50:33.679Z,90.06
2023-11-24T01:51:33.752Z,90.47
2023-11-24T01:52:33.656Z,90.88
2023-11-24T01:53:33.648Z,90.99
2023-11-24T01:54:33.680Z,91.19
2023-11-24T01:55:33.657Z,91.40
2023-11-24T01:56:34.573Z,91.75
2023-11-24T01:57:33.640Z,91.75
2023-11-24T01:58:33.582Z,91.96
2023-11-24T01:59:33.587Z,92.16
2023-11-24T02:00:33.630Z,92.16
2023-11-24T02:01:33.581Z,92.37
2023-11-24T02:02:33.631Z,92.47
2023-11-24T02:03:33.677Z,92.68
2023-11-24T02:04:33.522Z,92.88
2023-11-24T02:05:33.522Z,92.57
2023-11-24T02:06:33.538Z,92.68
2023-11-24T02:07:33.505Z,92.78
2023-11-24T02:08:33.486Z,92.78
2023-11-24T02:09:33.507Z,92.82
2023-11-24T02:10:33.465Z,93.03
2023-11-24T02:11:33.485Z,92.41
2023-11-24T02:12:33.488Z,92.51
2023-11-24T02:13:33.444Z,92.31
2023-11-24T02:14:42.079Z,92.10
2023-11-24T02:15:33.439Z,91.79
2023-11-24T02:16:35.156Z,91.38
2023-11-24T02:17:35.102Z,91.58
2023-11-24T02:18:33.458Z,91.38
2023-11-24T02:19:33.357Z,90.97
2023-11-24T02:20:33.386Z,90.97
2023-11-24T02:21:33.400Z,90.76
2023-11-24T02:22:33.324Z,90.45
2023-11-24T02:23:33.335Z,90.35
2023-11-24T02:24:34.092Z,90.14
2023-11-24T02:25:33.311Z,90.49
2023-11-24T02:26:33.269Z,89.52
2023-11-24T02:27:33.320Z,89.52
2023-11-24T02:28:33.286Z,89.73
2023-11-24T02:29:33.261Z,89.83
2023-11-24T02:30:33.308Z,90.19
2023-11-24T02:31:33.291Z,90.08
2023-11-24T02:32:33.215Z,89.62
2023-11-24T02:33:33.285Z,89.73
2023-11-24T02:34:33.249Z,90.19
2023-11-24T02:35:33.329Z,90.28
2023-11-24T02:36:33.222Z,90.49
2023-11-24T02:37:33.210Z,90.59
2023-11-24T02:38:33.141Z,90.80
2023-11-24T02:39:33.161Z,91.01
2023-11-24T02:40:33.137Z,90.91
2023-11-24T02:41:33.136Z,91.11
2023-11-24T02:42:33.211Z,91.46
2023-11-24T02:43:33.110Z,91.88
2023-11-24T02:44:33.149Z,91.98
2023-11-24T02:45:33.170Z,92.08
2023-11-24T02:46:33.074Z,92.29
2023-11-24T02:47:33.136Z,92.40
2023-11-24T02:48:33.186Z,92.40
2023-11-24T02:49:33.071Z,92.04
2023-11-24T02:50:33.034Z,92.35
2023-11-24T02:51:33.049Z,92.29
2023-11-24T02:52:33.022Z,92.50
2023-11-24T02:53:32.989Z,92.50
2023-11-24T02:54:33.037Z,92.50
2023-11-24T02:55:32.962Z,92.60
2023-11-24T02:56:32.941Z,92.70
2023-11-24T02:57:32.954Z,92.80
2023-11-24T02:58:32.931Z,92.91
2023-11-24T02:59:32.940Z,92.80
2023-11-24T03:00:32.977Z,92.80
2023-11-24T03:01:32.985Z,92.80
2023-11-24T03:02:33.011Z,92.70
2023-11-24T03:03:32.891Z,92.91
2023-11-24T03:04:32.937Z,92.91
2023-11-24T03:05:32.865Z,93.12
2023-11-24T03:06:32.911Z,93.12
2023-11-24T03:07:32.854Z,93.12
2023-11-24T03:08:32.826Z,93.01
2023-11-24T03:09:32.833Z,93.12
2023-11-24T03:10:32.823Z,93.01
2023-11-24T03:11:32.789Z,93.22
2023-11-24T03:12:33.851Z,93.22
2023-11-24T03:13:32.768Z,93.22
2023-11-24T03:14:32.767Z,93.12
2023-11-24T03:15:32.793Z,93.12
2023-11-24T03:16:32.809Z,93.01
2023-11-24T03:17:32.788Z,93.12
2023-11-24T03:18:32.811Z,93.01
2023-11-24T03:19:32.725Z,92.80
2023-11-24T03:20:32.711Z,92.91
2023-11-24T03:21:32.704Z,93.05
2023-11-24T03:22:32.688Z,93.05
2023-11-24T03:23:32.697Z,93.26
2023-11-24T03:24:32.748Z,93.37
2023-11-24T03:25:32.659Z,93.47
2023-11-24T03:26:32.642Z,93.16
2023-11-24T03:27:32.666Z,93.16
2023-11-24T03:28:32.626Z,93.16
2023-11-24T03:29:33.408Z,93.05
2023-11-24T03:30:32.689Z,93.05
2023-11-24T03:31:32.586Z,93.05
2023-11-24T03:32:32.631Z,93.16
2023-11-24T03:33:32.640Z,93.37
2023-11-24T03:34:32.674Z,93.16
2023-11-24T03:35:32.521Z,93.01
2023-11-24T03:36:32.681Z,92.91
2023-11-24T03:37:32.539Z,92.70
2023-11-24T03:38:32.517Z,92.60
2023-11-24T03:39:32.496Z,92.50
2023-11-24T03:40:32.510Z,92.40
2023-11-24T03:41:32.472Z,92.50
2023-11-24T03:42:32.545Z,92.40
2023-11-24T03:43:32.485Z,92.70
2023-11-24T03:44:32.444Z,92.91
2023-11-24T03:45:32.495Z,93.22
2023-11-24T03:46:32.464Z,93.01
2023-11-24T03:47:32.459Z,92.91
2023-11-24T03:48:32.480Z,92.80
2023-11-24T03:49:32.385Z,92.60
2023-11-24T03:50:32.412Z,92.40
2023-11-24T03:51:32.386Z,92.50
2023-11-24T03:52:32.351Z,92.80
2023-11-24T03:53:32.337Z,92.80
2023-11-24T03:54:32.389Z,93.32
2023-11-24T03:55:32.369Z,93.32
2023-11-24T03:56:32.316Z,93.32
2023-11-24T03:57:32.333Z,93.12
2023-11-24T03:58:32.284Z,93.43
2023-11-24T03:59:32.279Z,93.43
2023-11-24T04:00:32.435Z,93.73
2023-11-24T04:01:32.455Z,93.84
2023-11-24T04:02:32.280Z,93.73
2023-11-24T04:03:33.209Z,93.73
2023-11-24T04:04:32.308Z,93.53
2023-11-24T04:05:32.233Z,93.53
2023-11-24T04:06:32.254Z,93.73
2023-11-24T04:07:32.209Z,93.94
2023-11-24T04:08:32.173Z,94.19
2023-11-24T04:09:32.402Z,93.98
2023-11-24T04:10:32.159Z,93.98
2023-11-24T04:11:32.152Z,93.94
2023-11-24T04:12:32.253Z,93.94
2023-11-24T04:13:32.128Z,93.98
2023-11-24T04:14:32.115Z,93.84
2023-11-24T04:15:32.188Z,93.73
2023-11-24T04:16:32.165Z,93.53
2023-11-24T04:17:32.136Z,93.43
2023-11-24T04:18:32.164Z,93.53
2023-11-24T04:19:32.042Z,93.53
2023-11-24T04:20:32.075Z,93.73
2023-11-24T04:21:32.070Z,93.98
2023-11-24T04:22:32.024Z,93.88
2023-11-24T04:23:32.012Z,93.84
2023-11-24T04:24:32.103Z,93.84
2023-11-24T04:25:32.028Z,93.94
2023-11-24T04:26:32.029Z,93.94
2023-11-24T04:27:31.973Z,93.73
2023-11-24T04:28:31.981Z,93.53
2023-11-24T04:29:31.956Z,93.43
2023-11-24T04:30:32.009Z,93.32
2023-11-24T04:31:31.929Z,93.22
2023-11-24T04:32:32.002Z,92.91
2023-11-24T04:33:31.935Z,93.01
2023-11-24T04:34:31.988Z,93.12
2023-11-24T04:35:31.889Z,93.53
2023-11-24T04:36:31.993Z,93.73
2023-11-24T04:37:31.861Z,93.73
2023-11-24T04:38:31.905Z,93.63
2023-11-24T04:39:31.844Z,93.53
2023-11-24T04:40:31.831Z,93.73
2023-11-24T04:41:31.809Z,93.73
2023-11-24T04:42:31.856Z,94.35
2023-11-24T04:43:31.861Z,95.07
2023-11-24T04:44:31.818Z,95.59
2023-11-24T04:45:31.860Z,96.47
2023-11-24T04:46:31.900Z,97.08
2023-11-24T04:47:31.806Z,97.71
2023-11-24T04:48:31.842Z,97.71
2023-11-24T04:49:31.746Z,98.43
2023-11-24T04:50:31.731Z,98.84
2023-11-24T04:51:31.742Z,98.94
2023-11-24T04:52:31.718Z,98.53
2023-11-24T04:53:31.694Z,98.47
2023-11-24T04:54:31.774Z,98.43
2023-11-24T04:55:31.670Z,97.91
2023-11-24T04:56:31.671Z,98.01
2023-11-24T04:57:31.668Z,98.22
2023-11-24T04:58:31.651Z,97.91
2023-11-24T04:59:31.633Z,97.91
2023-11-24T05:00:31.695Z,97.60
2023-11-24T05:01:32.660Z,97.71
2023-11-24T05:02:31.701Z,97.81
2023-11-24T05:03:32.350Z,98.22
2023-11-24T05:04:31.669Z,98.43
2023-11-24T05:05:31.574Z,98.32
2023-11-24T05:06:31.603Z,98.63
2023-11-24T05:07:31.552Z,98.74
2023-11-24T05:08:31.583Z,99.05
2023-11-24T05:09:32.571Z,99.51
2023-11-24T05:10:31.499Z,99.61
2023-11-24T05:11:32.482Z,99.61
2023-11-24T05:12:31.570Z,99.82
2023-11-24T05:13:31.481Z,99.92
2023-11-24T05:14:31.465Z,99.92
2023-11-24T05:15:31.487Z,99.99
2023-11-24T05:16:31.528Z,99.99
2023-11-24T05:17:31.444Z,99.99
2023-11-24T05:18:31.502Z,99.19
2023-11-24T05:19:31.414Z,99.40
2023-11-24T05:20:31.416Z,99.40
2023-11-24T05:21:31.401Z,99.61
2023-11-24T05:22:31.412Z,99.71
2023-11-24T05:23:31.406Z,99.61
2023-11-24T05:24:31.404Z,98.78
2023-11-24T05:25:31.374Z,98.68
2023-11-24T05:26:31.338Z,98.27
2023-11-24T05:27:31.358Z,98.27
2023-11-24T05:28:31.323Z,98.16
2023-11-24T05:29:31.296Z,98.16
2023-11-24T05:30:31.361Z,97.75
2023-11-24T05:31:31.323Z,97.33
2023-11-24T05:32:31.316Z,97.39
2023-11-24T05:33:31.298Z,97.54
2023-11-24T05:34:31.260Z,97.64
2023-11-24T05:35:31.238Z,97.13
2023-11-24T05:36:31.277Z,96.41
2023-11-24T05:37:31.239Z,96.26
2023-11-24T05:38:31.213Z,96.47
2023-11-24T05:39:31.284Z,96.15
2023-11-24T05:40:31.198Z,95.64
2023-11-24T05:41:31.171Z,96.15
2023-11-24T05:42:31.373Z,95.64
2023-11-24T05:43:31.139Z,95.84
2023-11-24T05:44:31.133Z,96.05
2023-11-24T05:45:38.393Z,96.47
2023-11-24T05:46:31.203Z,96.41
2023-11-24T05:47:31.151Z,96.41
2023-11-24T05:48:33.941Z,96.09
2023-11-24T05:49:31.075Z,96.15
2023-11-24T05:50:31.110Z,96.15
2023-11-24T05:51:31.094Z,96.30
2023-11-24T05:52:31.125Z,95.53
2023-11-24T05:53:31.056Z,95.74
2023-11-24T05:54:31.095Z,95.53
2023-11-24T05:55:31.053Z,95.74
2023-11-24T05:56:31.020Z,95.32
2023-11-24T05:57:31.020Z,95.12
2023-11-24T05:58:30.996Z,95.53
2023-11-24T05:59:31.795Z,95.43
2023-11-24T06:00:31.058Z,95.53
2023-11-24T06:01:30.960Z,95.74
2023-11-24T06:02:30.948Z,95.84
2023-11-24T06:03:31.035Z,95.53
2023-11-24T06:04:31.060Z,95.57
2023-11-24T06:05:30.958Z,95.68
2023-11-24T06:06:30.948Z,95.48
2023-11-24T06:07:30.886Z,95.57
2023-11-24T06:08:30.888Z,95.57
2023-11-24T06:09:31.151Z,95.17
2023-11-24T06:10:31.545Z,94.96
2023-11-24T06:11:30.840Z,94.44
2023-11-24T06:12:31.156Z,94.09
2023-11-24T06:13:30.814Z,94.13
2023-11-24T06:14:30.828Z,93.88
2023-11-24T06:15:30.829Z,93.78
2023-11-24T06:16:30.808Z,93.26
2023-11-24T06:17:31.182Z,93.47
2023-11-24T06:18:30.817Z,94.03
2023-11-24T06:19:30.744Z,93.82
2023-11-24T06:20:30.746Z,94.03
2023-11-24T06:21:30.852Z,93.82
2023-11-24T06:22:30.724Z,94.03
2023-11-24T06:23:30.713Z,94.23
2023-11-24T06:24:30.805Z,94.34
2023-11-24T06:25:30.695Z,94.69
2023-11-24T06:26:30.687Z,94.79
2023-11-24T06:27:30.713Z,94.59
2023-11-24T06:28:30.670Z,94.90
2023-11-24T06:29:30.651Z,94.69
2023-11-24T06:30:30.723Z,94.90
2023-11-24T06:31:30.642Z,94.90
2023-11-24T06:32:30.643Z,95.00
2023-11-24T06:33:30.658Z,95.00
2023-11-24T06:34:31.185Z,95.21
2023-11-24T06:35:30.598Z,95.52
2023-11-24T06:36:32.955Z,95.67
2023-11-24T06:37:30.584Z,95.87
2023-11-24T06:38:30.563Z,95.77
2023-11-24T06:39:30.573Z,95.67
2023-11-24T06:40:30.555Z,95.52
2023-11-24T06:41:30.518Z,95.42
2023-11-24T06:42:30.562Z,95.42
2023-11-24T06:43:30.524Z,95.31
2023-11-24T06:44:30.508Z,95.21
2023-11-24T06:45:30.583Z,95.42
2023-11-24T06:46:30.501Z,95.62
2023-11-24T06:47:30.481Z,95.21
2023-11-24T06:48:30.538Z,95.10
2023-11-24T06:49:30.454Z,95.31
2023-11-24T06:50:30.437Z,95.21
2023-11-24T06:51:30.460Z,95.21
2023-11-24T06:52:30.420Z,94.79
2023-11-24T06:53:30.388Z,94.75
2023-11-24T06:54:30.421Z,95.10
2023-11-24T06:55:30.368Z,95.10
2023-11-24T06:56:30.447Z,95.42
2023-11-24T06:57:30.382Z,95.62
2023-11-24T06:58:30.346Z,95.62
2023-11-24T06:59:30.327Z,95.94
2023-11-24T07:00:30.393Z,95.52
2023-11-24T07:01:30.443Z,95.27
2023-11-24T07:02:30.435Z,95.37
2023-11-24T07:03:30.307Z,95.68
2023-11-24T07:04:30.303Z,95.57
2023-11-24T07:05:30.276Z,95.83
2023-11-24T07:06:30.295Z,95.99
2023-11-24T07:07:30.284Z,96.14
2023-11-24T07:08:30.230Z,95.89
2023-11-24T07:09:30.220Z,96.41
2023-11-24T07:10:30.248Z,96.55
2023-11-24T07:11:30.202Z,97.17
2023-11-24T07:12:30.231Z,96.86
2023-11-24T07:13:30.188Z,96.86
2023-11-24T07:14:30.154Z,96.55
2023-11-24T07:15:30.166Z,96.55
2023-11-24T07:16:30.170Z,96.45
2023-11-24T07:17:30.165Z,96.66
2023-11-24T07:18:30.302Z,96.66
2023-11-24T07:19:30.191Z,96.97
2023-11-24T07:20:30.088Z,97.17
2023-11-24T07:21:30.095Z,97.17
2023-11-24T07:22:30.066Z,96.45
2023-11-24T07:23:30.077Z,96.45
2023-11-24T07:24:30.086Z,96.86
2023-11-24T07:25:30.050Z,97.07
2023-11-24T07:26:30.038Z,97.07
2023-11-24T07:27:32.180Z,96.24
2023-11-24T07:28:29.998Z,95.89
2023-11-24T07:29:30.023Z,95.37
2023-11-24T07:30:30.027Z,95.57
2023-11-24T07:31:29.983Z,95.78
2023-11-24T07:32:29.981Z,96.30
2023-11-24T07:33:29.973Z,95.73
2023-11-24T07:34:30.032Z,95.62
2023-11-24T07:35:29.952Z,95.99
2023-11-24T07:36:29.947Z,96.24
2023-11-24T07:37:29.939Z,95.83
2023-11-24T07:38:29.898Z,95.31
2023-11-24T07:39:29.928Z,96.14
2023-11-24T07:40:29.880Z,96.55
2023-11-24T07:41:29.908Z,97.59
2023-11-24T07:42:29.912Z,97.69
2023-11-24T07:43:29.862Z,97.79
2023-11-24T07:44:29.862Z,97.79
2023-11-24T07:45:29.838Z,98.21
2023-11-24T07:46:29.922Z,98.41
2023-11-24T07:47:29.838Z,97.94
2023-11-24T07:48:29.809Z,98.66
2023-11-24T07:49:29.790Z,99.08
2023-11-24T07:50:29.772Z,98.66
2023-11-24T07:51:29.774Z,99.29
2023-11-24T07:52:29.757Z,99.91
2023-11-24T07:53:29.755Z,99.85
2023-11-24T07:54:29.776Z,99.99
2023-11-24T07:55:29.731Z,99.99
2023-11-24T07:56:29.708Z,99.99
2023-11-24T07:57:29.699Z,99.99
2023-11-24T07:58:29.678Z,99.99
2023-11-24T07:59:29.706Z,99.99
2023-11-24T08:00:29.688Z,99.99
2023-11-24T08:01:29.754Z,99.99
2023-11-24T08:02:29.703Z,99.99
2023-11-24T08:03:29.686Z,99.99
2023-11-24T08:04:29.851Z,99.99
2023-11-24T08:05:29.621Z,99.99
2023-11-24T08:06:29.639Z,99.99
2023-11-24T08:07:29.611Z,99.99
2023-11-24T08:08:29.587Z,99.99
2023-11-24T08:09:29.584Z,99.99
2023-11-24T08:10:29.570Z,99.99
2023-11-24T08:11:29.568Z,99.99
2023-11-24T08:12:29.571Z,99.99
2023-11-24T08:13:29.531Z,99.99
2023-11-24T08:14:29.508Z,99.99
2023-11-24T08:15:29.535Z,99.99
2023-11-24T08:16:29.722Z,99.99
2023-11-24T08:17:29.557Z,99.99
2023-11-24T08:18:29.514Z,99.99
2023-11-24T08:19:29.478Z,99.99
2023-11-24T08:20:29.460Z,99.99
2023-11-24T08:21:29.456Z,99.99
2023-11-24T08:22:29.442Z,99.99
2023-11-24T08:23:29.450Z,99.99
2023-11-24T08:24:29.434Z,99.99
2023-11-24T08:25:29.406Z,99.99
2023-11-24T08:26:29.375Z,99.99
2023-11-24T08:27:29.401Z,99.99
2023-11-24T08:28:29.355Z,99.99
2023-11-24T08:29:29.350Z,99.99
2023-11-24T08:30:29.381Z,99.99
2023-11-24T08:31:29.343Z,99.99
2023-11-24T08:32:29.358Z,99.99
2023-11-24T08:33:29.333Z,99.99
2023-11-24T08:34:29.435Z,99.99
2023-11-24T08:35:30.299Z,99.99
2023-11-24T08:36:29.302Z,99.99
2023-11-24T08:37:29.281Z,99.99
2023-11-24T08:38:29.250Z,99.99
2023-11-24T08:39:29.270Z,99.99
2023-11-24T08:40:29.243Z,99.99
2023-11-24T08:41:35.539Z,99.99
2023-11-24T08:42:30.251Z,99.99
2023-11-24T08:43:29.218Z,99.99
2023-11-24T08:44:29.208Z,99.99
2023-11-24T08:45:29.230Z,99.99
2023-11-24T08:46:29.240Z,99.99
2023-11-24T08:47:29.367Z,99.99
2023-11-24T08:48:29.197Z,99.99
2023-11-24T08:49:29.147Z,99.99
2023-11-24T08:50:29.122Z,99.99
2023-11-24T08:51:30.087Z,99.99
2023-11-24T08:52:29.120Z,99.99
2023-11-24T08:53:29.091Z,99.99
2023-11-24T08:54:29.127Z,99.99
2023-11-24T08:55:29.131Z,99.99
2023-11-24T08:56:29.055Z,99.99
2023-11-24T08:57:29.063Z,99.99
2023-11-24T08:58:29.055Z,99.99
2023-11-24T08:59:29.031Z,99.99
2023-11-24T09:00:29.071Z,99.99
2023-11-24T09:01:30.616Z,99.99
2023-11-24T09:02:29.050Z,99.99
2023-11-24T09:03:29.001Z,99.99
2023-11-24T09:04:29.176Z,99.99
2023-11-24T09:05:29.061Z,99.99
2023-11-24T09:06:29.000Z,99.99
2023-11-24T09:07:28.947Z,99.99
2023-11-24T09:08:28.958Z,99.99
2023-11-24T09:09:28.930Z,99.99
2023-11-24T09:10:28.906Z,99.99
2023-11-24T09:11:28.904Z,99.99
2023-11-24T09:12:28.931Z,99.99
2023-11-24T09:13:28.903Z,99.99
2023-11-24T09:14:28.907Z,99.99
2023-11-24T09:15:28.921Z,99.99
2023-11-24T09:16:28.947Z,99.99
2023-11-24T09:17:28.872Z,99.99
2023-11-24T09:18:28.854Z,99.99
2023-11-24T09:19:28.826Z,99.99
2023-11-24T09:20:28.821Z,99.99
2023-11-24T09:21:28.807Z,99.99
2023-11-24T09:22:28.785Z,99.99
2023-11-24T09:23:28.812Z,99.99
2023-11-24T09:24:28.847Z,99.99
2023-11-24T09:25:29.772Z,99.99
2023-11-24T09:26:28.746Z,99.99
2023-11-24T09:27:28.740Z,99.99
2023-11-24T09:28:28.724Z,99.99
2023-11-24T09:29:28.742Z,99.99
2023-11-24T09:30:28.746Z,99.99
2023-11-24T09:31:28.763Z,99.99
2023-11-24T09:32:28.695Z,99.99
2023-11-24T09:33:28.675Z,99.99
2023-11-24T09:34:28.745Z,99.99
2023-11-24T09:35:28.661Z,99.99
2023-11-24T09:36:28.666Z,99.99
2023-11-24T09:37:28.645Z,99.99
2023-11-24T09:38:28.623Z,99.99
2023-11-24T09:39:28.656Z,99.99
2023-11-24T09:40:28.590Z,99.99
2023-11-24T09:41:28.597Z,99.99
2023-11-24T09:42:28.607Z,99.99
2023-11-24T09:43:29.542Z,99.99
2023-11-24T09:44:28.553Z,99.99
2023-11-24T09:45:28.558Z,99.99
2023-11-24T09:46:36.509Z,99.99
2023-11-24T09:47:30.579Z,99.99
2023-11-24T09:48:28.550Z,99.99
2023-11-24T09:49:28.502Z,99.99
2023-11-24T09:50:28.530Z,99.99
2023-11-24T09:51:28.486Z,99.99
2023-11-24T09:52:28.470Z,99.99
2023-11-24T09:53:28.507Z,99.85
2023-11-24T09:54:28.442Z,99.85
2023-11-24T09:55:28.736Z,99.99
2023-11-24T09:56:28.415Z,99.79
2023-11-24T09:57:28.417Z,99.54
2023-11-24T09:58:28.395Z,99.27
2023-11-24T09:59:28.432Z,99.38
2023-11-24T10:00:29.231Z,99.79
2023-11-24T10:01:28.378Z,99.58
2023-11-24T10:02:28.457Z,99.17
2023-11-24T10:03:29.207Z,98.61
2023-11-24T10:04:28.411Z,98.50
2023-11-24T10:05:28.421Z,98.25
2023-11-24T10:06:28.332Z,98.46
2023-11-24T10:07:28.306Z,97.79
2023-11-24T10:08:28.281Z,97.49
2023-11-24T10:09:28.289Z,97.28
2023-11-24T10:10:28.301Z,96.14
2023-11-24T10:11:28.289Z,95.83
2023-11-24T10:12:28.259Z,96.24
2023-11-24T10:13:28.243Z,95.99
2023-11-24T10:14:28.275Z,95.99
2023-11-24T10:15:28.217Z,95.89
2023-11-24T10:16:28.243Z,95.43
2023-11-24T10:17:28.291Z,95.02
2023-11-24T10:18:28.176Z,94.50
2023-11-24T10:19:28.220Z,94.85
2023-11-24T10:20:28.167Z,95.17
2023-11-24T10:21:32.513Z,94.75
2023-11-24T10:22:29.182Z,94.75
2023-11-24T10:23:28.135Z,95.43
2023-11-24T10:24:28.117Z,94.65
2023-11-24T10:25:28.135Z,94.85
2023-11-24T10:26:28.113Z,94.96
2023-11-24T10:27:28.078Z,95.17
2023-11-24T10:28:28.130Z,94.92
2023-11-24T10:29:28.062Z,94.96
2023-11-24T10:30:28.060Z,95.17
2023-11-24T10:31:28.065Z,94.85
2023-11-24T10:32:28.043Z,94.75
2023-11-24T10:33:35.265Z,95.27
2023-11-24T10:34:29.156Z,95.68
2023-11-24T10:35:28.080Z,94.96
2023-11-24T10:36:28.005Z,95.21
2023-11-24T10:37:27.992Z,95.68
2023-11-24T10:38:27.955Z,96.09
2023-11-24T10:39:27.979Z,95.94
2023-11-24T10:40:27.975Z,95.73
2023-11-24T10:41:27.942Z,96.09
2023-11-24T10:42:27.914Z,96.03
2023-11-24T10:43:27.927Z,94.90
2023-11-24T10:44:27.880Z,95.52
2023-11-24T10:45:27.911Z,95.00
2023-11-24T10:46:28.031Z,94.38
2023-11-24T10:47:27.911Z,94.18
2023-11-24T10:48:27.872Z,94.38
2023-11-24T10:49:27.854Z,94.48
2023-11-24T10:50:28.832Z,93.97
2023-11-24T10:51:27.849Z,93.55
2023-11-24T10:52:27.834Z,94.07
2023-11-24T10:53:27.803Z,93.87
2023-11-24T10:54:27.784Z,93.76
2023-11-24T10:55:27.793Z,93.55
2023-11-24T10:56:27.778Z,93.76
2023-11-24T10:57:27.770Z,92.72
2023-11-24T10:58:27.811Z,92.00
2023-11-24T10:59:27.757Z,92.07
2023-11-24T11:00:27.744Z,91.65
2023-11-24T11:01:27.801Z,89.69
2023-11-24T11:02:27.767Z,89.79
2023-11-24T11:03:27.745Z,90.89
2023-11-24T11:04:27.750Z,89.75
2023-11-24T11:05:27.738Z,89.54
2023-11-24T11:06:27.664Z,90.16
2023-11-24T11:07:27.690Z,89.75
2023-11-24T11:08:27.635Z,89.54
2023-11-24T11:09:27.638Z,90.31
2023-11-24T11:10:27.751Z,91.24
2023-11-24T11:11:27.628Z,90.58
2023-11-24T11:12:27.590Z,90.68
2023-11-24T11:13:27.590Z,91.40
2023-11-24T11:14:27.583Z,90.53
2023-11-24T11:15:27.594Z,89.86
2023-11-24T11:16:27.634Z,90.12
2023-11-24T11:17:27.563Z,89.75
2023-11-24T11:18:27.546Z,90.20
2023-11-24T11:19:27.520Z,90.72
2023-11-24T11:20:27.515Z,90.52
2023-11-24T11:21:27.507Z,90.93
2023-11-24T11:22:27.530Z,92.11
2023-11-24T11:23:27.501Z,91.96
2023-11-24T11:24:27.476Z,92.07
2023-11-24T11:25:27.460Z,91.65
2023-11-24T11:26:27.464Z,91.75
2023-11-24T11:27:27.413Z,91.44
2023-11-24T11:28:27.444Z,91.86
2023-11-24T11:29:27.410Z,92.83
2023-11-24T11:30:27.433Z,93.51
2023-11-24T11:31:27.493Z,92.83
2023-11-24T11:32:27.494Z,93.14
2023-11-24T11:33:27.357Z,93.66
2023-11-24T11:34:27.400Z,94.07
2023-11-24T11:35:27.346Z,94.28
2023-11-24T11:36:27.327Z,94.28
2023-11-24T11:37:27.338Z,94.48
2023-11-24T11:38:27.326Z,94.13
2023-11-24T11:39:27.401Z,94.03
2023-11-24T11:40:27.347Z,94.03
2023-11-24T11:41:27.275Z,91.65
2023-11-24T11:42:27.296Z,91.55
2023-11-24T11:43:27.350Z,90.58
2023-11-24T11:44:27.874Z,90.06
2023-11-24T11:45:27.246Z,89.50
2023-11-24T11:46:27.321Z,89.56
2023-11-24T11:47:27.298Z,87.29
2023-11-24T11:48:27.214Z,87.66
2023-11-24T11:49:27.176Z,85.81
2023-11-24T11:50:27.192Z,86.63
2023-11-24T11:51:27.159Z,87.29
2023-11-24T11:52:27.723Z,87.71
2023-11-24T11:53:27.143Z,88.78
2023-11-24T11:54:27.137Z,89.81
2023-11-24T11:55:27.179Z,91.05
2023-11-24T11:56:27.135Z,92.40
2023-11-24T11:57:27.102Z,91.26
2023-11-24T11:58:27.189Z,90.95
2023-11-24T11:59:27.085Z,92.40
2023-11-24T12:00:27.127Z,91.36
2023-11-24T12:01:27.130Z,91.05
2023-11-24T12:02:27.125Z,90.37
2023-11-24T12:03:27.077Z,90.95
2023-11-24T12:04:27.118Z,90.58
2023-11-24T12:05:27.062Z,90.89
2023-11-24T12:06:27.045Z,91.30
2023-11-24T12:07:27.024Z,91.16
2023-11-24T12:08:26.998Z,90.76
2023-11-24T12:09:26.957Z,87.73
2023-11-24T12:10:27.101Z,87.42
2023-11-24T12:11:26.949Z,87.93
2023-11-24T12:12:26.944Z,87.17
2023-11-24T12:13:27.937Z,87.01
2023-11-24T12:14:26.937Z,87.56
2023-11-24T12:15:26.918Z,88.29
2023-11-24T12:16:27.962Z,89.05
2023-11-24T12:17:26.872Z,89.77
2023-11-24T12:18:26.883Z,89.71
2023-11-24T12:19:26.862Z,90.12
2023-11-24T12:20:26.847Z,90.12
2023-11-24T12:21:26.830Z,90.58
2023-11-24T12:22:26.899Z,90.89
2023-11-24T12:23:26.814Z,91.20
2023-11-24T12:24:26.809Z,90.99
2023-11-24T12:25:26.832Z,90.68
2023-11-24T12:26:26.791Z,91.92
2023-11-24T12:27:26.779Z,92.02
2023-11-24T12:28:26.869Z,92.60
2023-11-24T12:29:26.792Z,93.05
2023-11-24T12:30:26.746Z,93.26
2023-11-24T12:31:26.834Z,93.57
2023-11-24T12:32:26.721Z,94.65
2023-11-24T12:33:26.716Z,95.89
2023-11-24T12:34:26.772Z,95.94
2023-11-24T12:35:26.684Z,96.24
2023-11-24T12:36:26.681Z,96.24
2023-11-24T12:37:26.734Z,95.94
2023-11-24T12:38:26.668Z,96.24
2023-11-24T12:39:26.643Z,96.19
2023-11-24T12:40:26.737Z,96.49
2023-11-24T12:41:26.632Z,97.01
2023-11-24T12:42:26.619Z,97.53
2023-11-24T12:43:26.626Z,96.70
2023-11-24T12:44:26.605Z,96.70
2023-11-24T12:45:26.579Z,97.47
2023-11-24T12:46:26.659Z,97.88
2023-11-24T12:47:41.686Z,97.78
2023-11-24T12:48:27.614Z,97.22
2023-11-24T12:49:26.542Z,96.20
2023-11-24T12:50:27.530Z,94.34
2023-11-24T12:51:26.507Z,95.12
2023-11-24T12:52:26.560Z,94.40